Time;durP1;ratioP1;P1;durP2;ratioP2;P2;SDS_P1;SDS_P2;PMS_P1;PMS_P2;Temp;Humidity;BMP_temperature;BMP_pressure;BME280_temperature;BME280_humidity;BME280_pressure;Samples;Min_cycle;Max_cycle;Signal;HPM_P1;HPM_P2
2022/12/05 00:01:22;;;;;;;75.30;37.90;;;3.50;99.90;;;;;;5013335;28;38912;-80
2022/12/05 00:03:55;;;;;;;78.10;39.80;;;3.50;99.90;;;;;;5011938;28;47573;-80
2022/12/05 00:06:23;;;;;;;74.67;38.93;;;3.50;99.90;;;;;;4998059;28;38953;-82
2022/12/05 00:08:50;;;;;;;79.40;40.97;;;3.50;99.90;;;;;;4997853;28;37841;-79
2022/12/05 00:11:19;;;;;;;78.73;41.20;;;3.50;99.90;;;;;;4993941;28;37303;-80
2022/12/05 00:13:46;;;;;;;78.33;40.93;;;3.50;99.90;;;;;;4992306;28;38416;-78
2022/12/05 00:16:17;;;;;;;77.77;38.77;;;3.50;99.90;;;;;;5015709;28;39030;-79
2022/12/05 00:18:44;;;;;;;70.80;39.13;;;3.50;99.90;;;;;;4996890;28;37198;-80
2022/12/05 00:21:31;;;;;;;75.77;39.90;;;3.50;99.90;;;;;;5019365;28;39722;-79
2022/12/05 00:23:59;;;;;;;76.07;41.13;;;3.50;99.90;;;;;;4998938;28;37389;-79
2022/12/05 00:26:25;;;;;;;80.57;41.30;;;3.60;99.90;;;;;;5013892;28;37727;-79
2022/12/05 00:28:53;;;;;;;72.13;39.27;;;3.60;99.90;;;;;;4997804;28;38283;-80
2022/12/05 00:31:21;;;;;;;70.13;38.63;;;3.60;99.90;;;;;;5011221;28;37766;-80
2022/12/05 00:33:50;;;;;;;72.30;39.20;;;3.60;99.90;;;;;;5013738;28;38753;-79
2022/12/05 00:36:24;;;;;;;75.67;39.90;;;3.60;99.90;;;;;;5010448;28;39873;-80
2022/12/05 00:38:54;;;;;;;69.93;38.33;;;3.60;99.90;;;;;;5017186;28;37041;-80
2022/12/05 00:41:23;;;;;;;66.27;35.83;;;3.60;99.90;;;;;;5002281;28;40522;-80
2022/12/05 00:43:50;;;;;;;68.33;36.63;;;3.70;99.90;;;;;;4999674;28;36053;-80
2022/12/05 00:46:20;;;;;;;69.17;36.43;;;3.70;99.90;;;;;;5014704;28;37396;-79
2022/12/05 00:48:48;;;;;;;69.87;37.73;;;3.70;99.90;;;;;;4997381;28;39075;-79
2022/12/05 00:51:32;;;;;;;68.13;37.03;;;3.70;99.90;;;;;;5010064;28;39019;-78
2022/12/05 00:54:02;;;;;;;69.37;37.70;;;3.70;99.90;;;;;;4997649;28;38214;-80
2022/12/05 00:56:29;;;;;;;69.63;37.67;;;3.80;99.90;;;;;;5014672;28;47135;-80
2022/12/05 00:58:57;;;;;;;70.00;37.03;;;3.70;99.90;;;;;;5009911;28;38638;-79
2022/12/05 01:01:27;;;;;;;67.53;36.30;;;3.80;99.90;;;;;;5009961;28;37108;-79
2022/12/05 01:03:56;;;;;;;66.73;35.27;;;3.80;99.90;;;;;;4994467;28;40088;-80
2022/12/05 01:06:25;;;;;;;73.80;38.70;;;3.80;99.90;;;;;;5012231;28;36842;-79
2022/12/05 01:08:56;;;;;;;65.80;35.63;;;3.80;99.90;;;;;;4997121;28;38794;-80
2022/12/05 01:11:24;;;;;;;73.47;37.53;;;3.80;99.90;;;;;;5012212;28;38201;-80
2022/12/05 01:13:51;;;;;;;66.57;36.17;;;3.80;99.90;;;;;;4995699;28;38327;-81
2022/12/05 01:16:25;;;;;;;62.97;35.97;;;3.90;99.90;;;;;;5011765;28;40523;-79
2022/12/05 01:18:58;;;;;;;72.67;36.90;;;3.90;99.90;;;;;;5010690;28;37912;-80
2022/12/05 01:21:24;;;;;;;62.00;35.13;;;3.90;99.90;;;;;;4992783;28;39495;-80
2022/12/05 01:23:51;;;;;;;66.20;35.13;;;3.90;99.90;;;;;;4994011;28;37515;-80
2022/12/05 01:26:19;;;;;;;68.77;36.83;;;3.90;99.90;;;;;;4993949;28;39200;-80
2022/12/05 01:28:46;;;;;;;67.23;35.43;;;3.90;99.90;;;;;;5003002;28;37772;-79
2022/12/05 01:31:25;;;;;;;70.73;36.83;;;3.90;99.90;;;;;;5000487;28;37033;-80
2022/12/05 01:33:54;;;;;;;61.87;35.33;;;3.90;99.90;;;;;;4998297;28;37875;-80
2022/12/05 01:36:22;;;;;;;65.67;35.80;;;4.00;99.90;;;;;;4997476;28;37588;-80
2022/12/05 01:38:49;;;;;;;60.77;34.70;;;4.00;99.90;;;;;;5019911;28;39492;-80
2022/12/05 01:41:25;;;;;;;64.23;34.27;;;4.00;99.90;;;;;;5011689;28;36965;-80
2022/12/05 01:44:09;;;;;;;60.97;32.90;;;4.20;99.90;;;;;;5020819;28;36993;-80
2022/12/05 01:46:47;;;;;;;56.53;32.13;;;4.10;99.90;;;;;;4999609;28;47080;-78
2022/12/05 01:49:21;;;;;;;64.43;34.13;;;4.10;99.90;;;;;;5015637;28;37649;-79
2022/12/05 01:51:51;;;;;;;66.23;36.03;;;4.10;99.90;;;;;;5001946;28;37027;-80
2022/12/05 01:54:19;;;;;;;59.70;34.00;;;4.20;99.90;;;;;;5000322;28;36048;-80
2022/12/05 01:56:55;;;;;;;62.17;33.37;;;4.20;99.90;;;;;;5018624;28;38200;-79
2022/12/05 01:59:22;;;;;;;57.00;33.17;;;4.20;99.90;;;;;;5016106;28;37284;-81
2022/12/05 02:04:21;;;;;;;54.70;31.63;;;4.20;99.90;;;;;;4985356;28;20039;-77
2022/12/05 02:06:47;;;;;;;61.10;33.53;;;4.20;99.90;;;;;;5000968;28;37391;-77
2022/12/05 02:09:13;;;;;;;61.53;35.03;;;4.20;99.90;;;;;;5003321;28;38875;-78
2022/12/05 02:11:52;;;;;;;59.60;32.43;;;4.20;99.90;;;;;;5003929;28;36929;-77
2022/12/05 02:14:24;;;;;;;59.80;32.70;;;4.20;99.90;;;;;;4998999;28;37328;-77
2022/12/05 02:16:50;;;;;;;54.90;33.15;;;4.20;99.90;;;;;;4995665;28;39300;-78
2022/12/05 02:19:36;;;;;;;60.63;33.50;;;4.20;99.90;;;;;;4993066;28;38344;-77
2022/12/05 02:22:02;;;;;;;54.10;31.90;;;4.20;99.90;;;;;;5003469;28;36776;-77
2022/12/05 02:24:49;;;;;;;54.97;31.10;;;4.30;99.90;;;;;;5000223;28;48704;-77
2022/12/05 02:27:27;;;;;;;56.60;31.07;;;4.30;99.90;;;;;;4995780;28;37606;-77
2022/12/05 02:30:15;;;;;;;60.33;32.53;;;4.30;99.90;;;;;;5014143;28;41497;-78
2022/12/05 02:32:58;;;;;;;54.70;31.83;;;4.30;99.90;;;;;;5002391;28;47138;-77
2022/12/05 02:35:45;;;;;;;56.30;31.30;;;4.30;99.90;;;;;;5001268;28;36030;-77
2022/12/05 02:38:18;;;;;;;58.17;31.57;;;4.30;99.90;;;;;;5005503;28;37848;-77
2022/12/05 02:40:49;;;;;;;58.57;33.33;;;4.30;99.90;;;;;;5006447;28;38355;-77
2022/12/05 02:43:18;;;;;;;59.13;31.87;;;4.40;99.90;;;;;;5014214;28;38237;-78
2022/12/05 02:45:49;;;;;;;53.20;31.03;;;4.40;99.90;;;;;;5005306;28;37438;-77
2022/12/05 02:48:16;;;;;;;57.37;31.40;;;4.40;99.90;;;;;;5006792;28;37670;-77
2022/12/05 02:50:46;;;;;;;49.63;28.93;;;4.40;99.90;;;;;;5003757;28;38563;-77
2022/12/05 02:53:15;;;;;;;54.17;31.30;;;4.40;99.90;;;;;;5018626;28;38679;-77
2022/12/05 02:55:44;;;;;;;56.10;30.83;;;4.40;99.90;;;;;;5003034;28;36306;-77
2022/12/05 02:58:26;;;;;;;52.30;29.80;;;4.40;99.90;;;;;;4997087;28;38749;-77
2022/12/05 03:00:56;;;;;;;50.60;29.52;;;4.50;99.90;;;;;;5006425;28;38415;-76
2022/12/05 03:03:23;;;;;;;48.77;28.87;;;4.50;99.90;;;;;;5007268;28;37085;-76
2022/12/05 03:06:01;;;;;;;53.57;30.67;;;4.50;99.90;;;;;;5016893;28;36337;-77
2022/12/05 03:08:33;;;;;;;53.20;30.13;;;4.50;99.90;;;;;;5018934;28;36409;-77
2022/12/05 03:11:01;;;;;;;51.75;29.70;;;4.50;99.90;;;;;;5022152;28;38380;-77
2022/12/05 03:13:37;;;;;;;51.80;30.40;;;4.50;99.90;;;;;;5000285;28;37009;-76
2022/12/05 03:16:10;;;;;;;50.77;30.40;;;4.50;99.90;;;;;;5001171;28;37184;-75
2022/12/05 03:18:41;;;;;;;53.03;30.93;;;4.50;99.90;;;;;;4997204;28;48664;-76
2022/12/05 03:21:28;;;;;;;46.73;28.27;;;4.50;99.90;;;;;;4998993;28;37085;-76
2022/12/05 03:24:15;;;;;;;52.57;30.60;;;4.50;99.90;;;;;;4998665;28;38262;-76
2022/12/05 03:27:26;;;;;;;49.63;28.93;;;4.60;99.90;;;;;;4997944;28;46567;-76
2022/12/05 03:30:03;;;;;;;49.13;29.30;;;4.50;99.90;;;;;;4995982;28;47451;-75
2022/12/05 03:32:56;;;;;;;47.53;27.47;;;4.50;99.90;;;;;;4997281;28;38953;-75
2022/12/05 03:35:52;;;;;;;48.40;27.77;;;4.50;99.90;;;;;;4974453;28;37798;-77
2022/12/05 03:38:32;;;;;;;46.07;27.23;;;4.60;99.90;;;;;;4998828;28;36314;-77
2022/12/05 03:41:15;;;;;;;47.27;27.23;;;4.60;99.90;;;;;;4999618;28;38502;-77
2022/12/05 03:43:59;;;;;;;51.83;29.07;;;4.60;99.90;;;;;;5013414;28;48075;-77
2022/12/05 03:46:41;;;;;;;48.63;28.10;;;4.60;99.90;;;;;;4996052;28;38212;-78
2022/12/05 03:49:40;;;;;;;51.50;29.87;;;4.60;99.90;;;;;;5012245;28;36366;-77
2022/12/05 03:52:12;;;;;;;47.27;27.13;;;4.60;99.90;;;;;;5004236;28;37805;-76
2022/12/05 03:54:55;;;;;;;46.08;27.48;;;4.60;99.90;;;;;;5014174;28;37119;-77
2022/12/05 03:57:23;;;;;;;46.47;27.70;;;4.60;99.90;;;;;;5004076;28;41595;-77
2022/12/05 03:59:53;;;;;;;46.33;27.40;;;4.60;99.90;;;;;;5003252;28;36475;-77
2022/12/05 04:02:44;;;;;;;44.17;26.63;;;4.60;99.90;;;;;;5005248;28;38385;-77
2022/12/05 04:05:19;;;;;;;49.97;27.63;;;4.60;99.90;;;;;;5000313;28;38484;-77
2022/12/05 04:07:59;;;;;;;48.80;28.97;;;4.60;99.90;;;;;;5007107;28;38557;-77
2022/12/05 04:10:30;;;;;;;52.60;29.77;;;4.60;99.90;;;;;;5004141;28;37439;-77
2022/12/05 04:13:16;;;;;;;50.30;30.27;;;4.60;99.90;;;;;;5003878;28;37921;-77
2022/12/05 04:18:38;;;;;;;45.90;27.80;;;4.60;99.90;;;;;;5003544;28;49948;-78
2022/12/05 04:25:31;;;;;;;50.00;28.43;;;4.60;99.90;;;;;;5002259;28;49521;-77
2022/12/05 04:26:44;;;;;;;46.20;27.30;;;4.60;99.90;;;;;;5005379;28;48560;-77
2022/12/05 04:29:26;;;;;;;46.57;27.20;;;4.60;99.90;;;;;;5020235;28;37354;-77
2022/12/05 04:31:58;;;;;;;50.07;29.30;;;4.60;99.90;;;;;;5004167;28;36910;-77
2022/12/05 04:34:28;;;;;;;38.35;21.58;;;4.60;99.90;;;;;;5004524;28;39417;-78
2022/12/05 04:37:09;;;;;;;47.23;28.57;;;4.50;99.90;;;;;;5005341;28;38696;-77
2022/12/05 04:40:08;;;;;;;46.00;28.13;;;4.50;99.90;;;;;;5000880;28;47193;-77
2022/12/05 04:42:36;;;;;;;52.63;30.23;;;4.50;99.90;;;;;;5006685;28;47254;-76
2022/12/05 04:45:07;;;;;;;54.40;32.00;;;4.50;99.90;;;;;;5004286;28;40404;-76
2022/12/05 04:47:41;;;;;;;51.83;29.03;;;4.50;99.90;;;;;;4998271;28;47998;-76
2022/12/05 04:50:09;;;;;;;59.57;32.23;;;4.50;99.90;;;;;;5018720;28;38566;-77
2022/12/05 04:52:37;;;;;;;56.43;33.53;;;4.50;99.90;;;;;;4998756;28;37435;-78
2022/12/05 04:55:13;;;;;;;54.53;31.47;;;4.50;99.90;;;;;;5003702;28;37812;-77
2022/12/05 04:57:51;;;;;;;63.50;33.97;;;4.50;99.90;;;;;;4994272;28;46942;-77
2022/12/05 05:00:18;;;;;;;58.63;31.23;;;4.50;99.90;;;;;;4994439;28;38188;-77
2022/12/05 05:02:50;;;;;;;59.40;32.50;;;4.50;99.90;;;;;;4996120;28;37513;-77
2022/12/05 05:05:18;;;;;;;51.60;31.17;;;4.50;99.90;;;;;;4998005;28;38479;-77
2022/12/05 05:07:48;;;;;;;55.60;32.03;;;4.50;99.90;;;;;;4999094;28;38807;-77
2022/12/05 05:10:18;;;;;;;47.90;29.47;;;4.50;99.90;;;;;;5000738;28;39132;-77
2022/12/05 05:12:44;;;;;;;54.87;31.07;;;4.50;99.90;;;;;;5016317;28;37182;-78
2022/12/05 05:15:11;;;;;;;51.17;30.13;;;4.50;99.90;;;;;;4996753;28;38825;-77
2022/12/05 05:17:37;;;;;;;52.73;31.23;;;4.50;99.90;;;;;;4995936;28;36310;-77
2022/12/05 05:22:52;;;;;;;52.63;31.20;;;4.50;99.90;;;;;;4996254;28;49726;-77
2022/12/05 05:25:19;;;;;;;52.70;30.00;;;4.50;99.90;;;;;;4992335;28;37430;-77
2022/12/05 05:27:54;;;;;;;57.37;32.93;;;4.50;99.90;;;;;;5010281;28;38717;-76
2022/12/05 05:30:22;;;;;;;53.70;31.40;;;4.50;99.90;;;;;;4997589;28;38531;-77
2022/12/05 05:32:49;;;;;;;51.40;31.10;;;4.50;99.90;;;;;;5008042;28;38348;-77
2022/12/05 05:35:15;;;;;;;58.77;33.63;;;4.50;99.90;;;;;;4996320;28;37250;-76
2022/12/05 05:37:42;;;;;;;57.20;30.63;;;4.60;99.90;;;;;;5012685;28;37616;-76
2022/12/05 05:40:10;;;;;;;47.00;29.27;;;4.60;99.90;;;;;;4998196;28;37998;-76
2022/12/05 05:42:42;;;;;;;49.67;29.10;;;4.60;99.90;;;;;;4993288;28;39450;-77
2022/12/05 05:45:09;;;;;;;50.92;29.52;;;4.60;99.90;;;;;;4995055;28;38703;-77
2022/12/05 05:47:35;;;;;;;57.23;30.83;;;4.60;99.90;;;;;;4999609;28;39450;-77
2022/12/05 05:50:02;;;;;;;49.47;29.07;;;4.60;99.90;;;;;;5000790;28;37751;-77
2022/12/05 05:52:30;;;;;;;50.87;29.33;;;4.60;99.90;;;;;;4998880;28;36097;-76
2022/12/05 05:54:56;;;;;;;55.60;30.20;;;4.60;99.90;;;;;;5007476;28;38700;-76
2022/12/05 05:57:23;;;;;;;53.33;30.63;;;4.60;99.90;;;;;;5015288;28;37476;-76
2022/12/05 05:59:49;;;;;;;49.43;29.17;;;4.70;99.90;;;;;;4995084;28;36805;-76
2022/12/05 06:02:15;;;;;;;54.73;29.73;;;4.60;99.90;;;;;;4991954;28;37377;-76
2022/12/05 06:04:41;;;;;;;54.43;30.77;;;4.60;99.90;;;;;;4990186;28;39046;-77
2022/12/05 06:07:07;;;;;;;52.33;29.10;;;4.60;99.90;;;;;;4984805;28;39142;-77
2022/12/05 06:09:33;;;;;;;57.17;31.00;;;4.60;99.90;;;;;;4990965;28;37878;-77
2022/12/05 06:11:59;;;;;;;62.73;31.77;;;4.70;99.90;;;;;;4989122;28;37374;-77
2022/12/05 06:14:26;;;;;;;52.93;29.37;;;4.60;99.90;;;;;;4992922;28;38565;-75
2022/12/05 06:16:52;;;;;;;57.87;30.97;;;4.70;99.90;;;;;;4993412;28;39107;-76
2022/12/05 06:19:18;;;;;;;52.67;30.00;;;4.70;99.90;;;;;;4993539;28;38532;-76
2022/12/05 06:21:44;;;;;;;54.57;30.97;;;4.70;99.90;;;;;;4996528;28;36214;-77
2022/12/05 06:24:10;;;;;;;56.93;30.00;;;4.70;99.90;;;;;;4996759;28;37873;-76
2022/12/05 06:26:36;;;;;;;65.97;33.90;;;4.70;99.90;;;;;;5002874;28;38558;-76
2022/12/05 06:29:02;;;;;;;51.73;31.37;;;4.70;99.90;;;;;;5000798;28;37709;-76
2022/12/05 06:31:30;;;;;;;56.93;31.37;;;4.70;99.90;;;;;;4998721;28;37384;-77
2022/12/05 06:34:03;;;;;;;54.40;30.33;;;4.70;99.90;;;;;;4999208;28;40250;-76
2022/12/05 06:36:30;;;;;;;59.77;31.67;;;4.80;99.90;;;;;;5015227;28;47149;-76
2022/12/05 06:38:57;;;;;;;56.43;30.80;;;4.70;99.90;;;;;;5005119;28;38103;-76
2022/12/05 06:41:24;;;;;;;50.10;29.30;;;4.80;99.90;;;;;;4996211;28;38540;-77
2022/12/05 06:43:55;;;;;;;52.13;30.27;;;4.80;99.90;;;;;;4987962;28;40689;-75
2022/12/05 06:46:22;;;;;;;53.13;30.80;;;4.80;99.90;;;;;;5000036;28;39363;-75
2022/12/05 06:48:50;;;;;;;54.17;31.50;;;4.80;99.90;;;;;;4996571;28;37650;-75
2022/12/05 06:51:16;;;;;;;48.17;30.50;;;4.80;99.90;;;;;;5006509;28;34375;-75
2022/12/05 06:53:43;;;;;;;55.57;30.80;;;4.80;99.90;;;;;;4998653;28;39026;-74
2022/12/05 06:56:12;;;;;;;55.13;29.73;;;4.80;99.90;;;;;;4997725;28;37463;-74
2022/12/05 06:58:43;;;;;;;58.90;32.17;;;4.80;99.90;;;;;;4994547;28;37004;-76
2022/12/05 07:04:00;;;;;;;52.90;30.20;;;4.90;99.90;;;;;;4977771;28;39227;-76
2022/12/05 07:06:26;;;;;;;50.40;29.17;;;4.90;99.90;;;;;;4977732;28;37872;-76
2022/12/05 07:08:53;;;;;;;66.47;34.80;;;4.90;99.90;;;;;;4981663;28;39067;-75
2022/12/05 07:11:19;;;;;;;54.03;31.83;;;4.90;99.90;;;;;;4981497;28;38041;-76
2022/12/05 07:13:45;;;;;;;59.03;32.13;;;5.00;99.90;;;;;;4997128;28;39653;-75
2022/12/05 07:16:12;;;;;;;56.07;30.10;;;5.00;99.90;;;;;;4992358;28;37671;-75
2022/12/05 07:18:38;;;;;;;59.93;32.00;;;5.00;99.90;;;;;;4996531;28;37290;-75
2022/12/05 07:21:07;;;;;;;52.83;29.97;;;5.00;99.90;;;;;;4997642;28;37808;-75
2022/12/05 07:23:33;;;;;;;56.10;30.27;;;5.00;99.90;;;;;;4993599;28;46822;-75
2022/12/05 07:26:02;;;;;;;59.30;30.97;;;5.00;99.90;;;;;;4998259;28;39303;-75
2022/12/05 07:28:29;;;;;;;57.70;31.50;;;5.10;99.90;;;;;;4997900;28;38368;-76
2022/12/05 07:31:02;;;;;;;53.63;30.67;;;5.10;99.90;;;;;;4996613;28;38186;-76
2022/12/05 07:33:29;;;;;;;56.43;30.77;;;5.10;99.90;;;;;;4995534;28;39414;-75
2022/12/05 07:36:08;;;;;;;54.83;29.97;;;5.10;99.90;;;;;;5011587;28;38469;-76
2022/12/05 07:38:34;;;;;;;60.57;30.40;;;5.10;99.90;;;;;;4995110;28;47136;-76
2022/12/05 07:41:08;;;;;;;49.57;29.10;;;5.10;99.90;;;;;;4999979;28;37726;-75
2022/12/05 07:43:34;;;;;;;56.03;30.03;;;5.10;99.90;;;;;;5001265;28;46907;-75
2022/12/05 07:46:02;;;;;;;54.07;28.83;;;5.20;99.90;;;;;;4995556;28;37603;-76
2022/12/05 07:48:28;;;;;;;59.50;31.63;;;5.20;99.90;;;;;;4993929;28;38397;-76
2022/12/05 07:50:59;;;;;;;57.67;30.10;;;5.20;99.90;;;;;;4999794;28;37630;-75
2022/12/05 07:53:29;;;;;;;55.37;29.07;;;5.30;99.90;;;;;;4985918;28;37499;-76
2022/12/05 07:55:57;;;;;;;59.73;30.37;;;5.30;99.90;;;;;;4992273;28;37833;-76
2022/12/05 07:58:23;;;;;;;54.73;28.80;;;5.30;99.90;;;;;;4998547;28;38281;-76
2022/12/05 08:00:49;;;;;;;53.50;28.47;;;5.30;99.90;;;;;;4997635;28;36486;-76
2022/12/05 08:03:16;;;;;;;50.63;28.60;;;5.30;99.90;;;;;;4991029;28;37393;-76
2022/12/05 08:05:42;;;;;;;50.40;27.70;;;5.30;99.90;;;;;;4998200;28;38704;-76
2022/12/05 08:08:08;;;;;;;60.00;31.00;;;5.30;99.90;;;;;;4999513;28;37012;-77
2022/12/05 08:10:34;;;;;;;52.00;27.70;;;5.40;99.90;;;;;;5004846;28;36086;-76
2022/12/05 08:13:00;;;;;;;51.10;26.50;;;5.40;99.90;;;;;;5006133;28;37886;-77
2022/12/05 08:15:26;;;;;;;53.63;29.00;;;5.40;99.90;;;;;;5023964;28;37118;-77
2022/12/05 08:17:52;;;;;;;49.93;27.73;;;5.40;99.90;;;;;;5005494;28;38134;-76
2022/12/05 08:20:19;;;;;;;46.77;26.37;;;5.40;99.90;;;;;;5002649;28;39758;-77
2022/12/05 08:22:45;;;;;;;50.37;28.13;;;5.50;99.90;;;;;;5016434;28;37858;-76
2022/12/05 08:25:12;;;;;;;46.87;26.87;;;5.50;99.90;;;;;;5020862;28;20080;-76
2022/12/05 08:27:38;;;;;;;44.33;25.73;;;5.50;99.90;;;;;;5006826;28;38537;-76
2022/12/05 08:30:05;;;;;;;40.63;24.47;;;5.50;99.90;;;;;;5009056;28;36245;-76
2022/12/05 08:32:31;;;;;;;44.63;26.13;;;5.50;99.90;;;;;;5018019;28;37076;-75
2022/12/05 08:34:57;;;;;;;40.40;24.40;;;5.60;99.90;;;;;;5006709;28;36579;-75
2022/12/05 08:37:23;;;;;;;37.50;23.70;;;5.60;99.90;;;;;;5001795;28;38869;-76
2022/12/05 08:39:49;;;;;;;41.77;23.83;;;5.60;99.90;;;;;;4992686;28;36377;-75
2022/12/05 08:42:15;;;;;;;33.67;21.47;;;5.60;99.90;;;;;;4993479;28;39275;-75
2022/12/05 08:44:41;;;;;;;37.93;22.30;;;5.60;99.90;;;;;;4998787;28;39180;-74
2022/12/05 08:47:07;;;;;;;37.37;23.07;;;5.70;99.90;;;;;;4997277;28;39544;-75
2022/12/05 08:49:34;;;;;;;32.50;22.03;;;5.70;99.90;;;;;;4994491;28;37588;-75
2022/12/05 08:52:00;;;;;;;38.33;22.37;;;5.70;99.90;;;;;;4990013;28;39765;-76
2022/12/05 08:54:26;;;;;;;35.63;23.10;;;5.80;99.90;;;;;;4988544;28;38253;-75
2022/12/05 08:56:52;;;;;;;31.20;20.03;;;5.70;99.90;;;;;;4993557;28;38293;-75
2022/12/05 08:59:19;;;;;;;30.23;20.10;;;5.80;99.90;;;;;;4991257;28;38194;-75
2022/12/05 09:01:45;;;;;;;32.20;20.47;;;5.80;99.90;;;;;;4991661;28;38435;-74
2022/12/05 09:04:11;;;;;;;31.50;19.70;;;5.80;99.90;;;;;;4989722;28;37924;-75
2022/12/05 09:06:38;;;;;;;29.47;20.10;;;5.80;99.90;;;;;;5012235;28;38707;-75
2022/12/05 09:09:08;;;;;;;27.77;19.03;;;5.80;99.90;;;;;;4997975;28;36979;-75
2022/12/05 09:11:39;;;;;;;31.60;19.73;;;5.80;99.90;;;;;;4997272;28;37669;-76
2022/12/05 09:14:06;;;;;;;28.80;19.67;;;5.80;99.90;;;;;;5000428;28;37530;-75
2022/12/05 09:16:35;;;;;;;28.73;19.20;;;5.80;99.90;;;;;;4996766;28;37636;-75
2022/12/05 09:19:02;;;;;;;28.43;18.70;;;5.90;99.90;;;;;;5010705;28;34639;-76
2022/12/05 09:21:30;;;;;;;25.73;18.83;;;5.90;99.90;;;;;;5007781;28;46641;-76
2022/12/05 09:23:58;;;;;;;26.53;16.93;;;5.90;99.90;;;;;;4996257;28;38253;-76
2022/12/05 09:26:26;;;;;;;24.63;17.77;;;5.90;99.90;;;;;;4996297;28;37170;-76
2022/12/05 09:28:52;;;;;;;26.73;18.57;;;5.90;99.90;;;;;;4997813;28;36215;-76
2022/12/05 09:31:21;;;;;;;27.37;18.53;;;5.90;99.90;;;;;;4997265;28;39018;-76
2022/12/05 09:33:49;;;;;;;24.50;18.33;;;5.90;99.90;;;;;;4998088;28;39847;-76
2022/12/05 09:36:33;;;;;;;28.57;18.60;;;5.90;99.90;;;;;;4994504;28;38885;-75
2022/12/05 09:39:03;;;;;;;27.00;18.37;;;6.00;99.90;;;;;;4999314;28;37342;-75
2022/12/05 09:45:03;;;;;;;27.75;18.35;;;6.00;99.90;;;;;;4997217;28;49099;-75
2022/12/05 09:47:48;;;;;;;25.40;17.67;;;6.00;99.90;;;;;;4997765;28;37850;-75
2022/12/05 09:50:19;;;;;;;27.53;17.37;;;6.00;99.90;;;;;;5000523;28;37069;-74
2022/12/05 09:53:23;;;;;;;24.13;16.67;;;6.00;99.90;;;;;;4999453;28;38593;-75
2022/12/05 09:56:03;;;;;;;24.60;16.75;;;6.00;99.90;;;;;;5010001;28;47332;-74
2022/12/05 09:58:38;;;;;;;21.97;16.47;;;6.10;99.90;;;;;;5001313;28;48732;-74
2022/12/05 10:01:42;;;;;;;25.80;18.07;;;6.10;99.90;;;;;;4998741;28;37585;-75
2022/12/05 10:04:44;;;;;;;23.57;16.30;;;6.10;99.90;;;;;;4999851;28;47400;-75
2022/12/05 10:07:26;;;;;;;21.97;15.67;;;6.10;99.90;;;;;;4997414;28;39074;-74
2022/12/05 10:10:31;;;;;;;21.23;15.93;;;6.10;99.90;;;;;;5001879;28;38975;-75
2022/12/05 10:13:36;;;;;;;22.00;16.40;;;6.10;99.90;;;;;;4975484;28;47163;-74
2022/12/05 10:16:09;;;;;;;21.43;15.63;;;6.20;99.90;;;;;;4999167;28;48223;-75
2022/12/05 10:18:56;;;;;;;19.03;14.87;;;6.20;99.90;;;;;;4995741;28;46989;-74
2022/12/05 10:21:39;;;;;;;19.30;15.20;;;6.20;99.90;;;;;;4994042;28;37716;-74
2022/12/05 10:24:13;;;;;;;19.73;15.57;;;6.30;99.90;;;;;;4996827;28;36316;-74
2022/12/05 10:26:53;;;;;;;19.03;14.17;;;6.30;99.90;;;;;;5002945;28;39034;-74
2022/12/05 10:29:36;;;;;;;18.90;14.90;;;6.40;99.90;;;;;;4992353;28;38753;-74
2022/12/05 10:32:18;;;;;;;20.27;14.93;;;6.40;99.90;;;;;;4995610;28;36880;-74
2022/12/05 10:34:45;;;;;;;16.23;12.88;;;6.40;99.90;;;;;;4999011;28;37771;-73
2022/12/05 10:37:19;;;;;;;17.80;13.20;;;6.40;99.90;;;;;;4999686;28;39512;-75
2022/12/05 10:39:47;;;;;;;17.00;13.43;;;6.30;99.90;;;;;;4996891;28;39696;-74
2022/12/05 10:42:30;;;;;;;19.13;13.73;;;6.40;99.90;;;;;;4999120;28;38282;-75
2022/12/05 10:45:01;;;;;;;15.53;12.70;;;6.30;99.90;;;;;;5011562;28;36931;-76
2022/12/05 10:47:32;;;;;;;16.17;11.97;;;6.30;99.90;;;;;;5002046;28;37542;-75
2022/12/05 10:50:15;;;;;;;15.07;12.40;;;6.30;99.90;;;;;;4998723;28;37809;-75
2022/12/05 10:52:42;;;;;;;15.87;12.50;;;6.30;99.90;;;;;;5015971;28;47069;-75
2022/12/05 10:55:15;;;;;;;14.73;11.97;;;6.30;99.90;;;;;;4999561;28;36501;-75
2022/12/05 10:57:41;;;;;;;15.35;12.00;;;6.30;99.90;;;;;;5001831;28;38594;-75
2022/12/05 11:00:13;;;;;;;15.63;12.20;;;6.30;99.90;;;;;;4997402;28;37172;-75
2022/12/05 11:02:40;;;;;;;13.60;10.73;;;6.30;99.90;;;;;;4995416;28;47449;-76
2022/12/05 11:05:07;;;;;;;13.17;11.00;;;6.30;99.90;;;;;;4997132;28;35643;-74
2022/12/05 11:07:47;;;;;;;14.13;10.83;;;6.40;99.90;;;;;;4997594;28;37892;-75
2022/12/05 11:10:27;;;;;;;14.20;10.43;;;6.40;99.90;;;;;;4996367;28;38962;-75
2022/12/05 11:12:56;;;;;;;16.90;11.20;;;6.40;99.90;;;;;;5005744;28;37298;-75
2022/12/05 11:15:25;;;;;;;12.80;11.03;;;6.30;99.90;;;;;;5001191;28;36357;-76
2022/12/05 11:17:54;;;;;;;12.50;10.57;;;6.30;99.90;;;;;;4996252;28;37543;-75
2022/12/05 11:20:23;;;;;;;14.87;11.70;;;6.30;99.90;;;;;;4998880;28;38483;-74
2022/12/05 11:22:51;;;;;;;13.57;10.83;;;6.40;99.90;;;;;;5000858;28;38935;-74
2022/12/05 11:25:23;;;;;;;13.70;10.60;;;6.30;99.90;;;;;;5003107;28;37227;-75
2022/12/05 11:27:49;;;;;;;13.38;10.00;;;6.30;99.90;;;;;;5000022;28;38699;-75
2022/12/05 11:30:21;;;;;;;13.07;10.60;;;6.30;99.90;;;;;;4999084;28;37368;-74
2022/12/05 11:32:48;;;;;;;19.77;10.87;;;6.40;99.90;;;;;;5001186;28;37306;-75
2022/12/05 11:35:27;;;;;;;14.93;12.10;;;6.30;99.90;;;;;;4998123;28;38994;-75
2022/12/05 11:38:05;;;;;;;12.27;10.57;;;6.40;99.90;;;;;;5010294;28;39063;-77
2022/12/05 11:41:00;;;;;;;12.43;10.53;;;6.30;99.90;;;;;;5000607;28;47096;-76
2022/12/05 11:43:26;;;;;;;14.10;10.80;;;6.30;99.90;;;;;;4997660;28;38262;-76
2022/12/05 11:46:11;;;;;;;13.43;10.97;;;6.40;99.90;;;;;;4993737;28;39057;-75
2022/12/05 11:48:56;;;;;;;13.27;9.97;;;6.40;99.90;;;;;;5000761;28;47060;-75
2022/12/05 11:51:41;;;;;;;15.67;10.50;;;6.40;99.90;;;;;;4998818;28;38614;-75
2022/12/05 11:54:44;;;;;;;13.53;10.07;;;6.40;99.90;;;;;;4999317;28;38169;-75
2022/12/05 11:57:36;;;;;;;12.37;9.60;;;6.40;99.90;;;;;;4993668;28;36644;-75
2022/12/05 12:00:16;;;;;;;11.10;9.40;;;6.50;99.90;;;;;;5002887;28;37726;-74
2022/12/05 12:02:48;;;;;;;12.47;9.57;;;6.50;99.90;;;;;;4989299;28;49287;-73
2022/12/05 12:05:42;;;;;;;12.82;8.93;;;6.50;99.90;;;;;;4987375;28;38735;-75
2022/12/05 12:08:26;;;;;;;10.60;8.70;;;6.60;99.90;;;;;;4996174;28;37629;-76
2022/12/05 12:11:16;;;;;;;11.17;8.77;;;6.60;99.90;;;;;;4992578;28;39141;-76
2022/12/05 12:14:06;;;;;;;10.70;8.67;;;6.60;99.90;;;;;;4999118;28;47029;-75
2022/12/05 12:17:04;;;;;;;12.27;8.30;;;6.60;99.90;;;;;;5004090;28;47432;-75
2022/12/05 12:19:55;;;;;;;12.47;9.10;;;6.60;99.90;;;;;;5001697;28;49005;-74
2022/12/05 12:22:33;;;;;;;12.27;9.10;;;6.70;99.90;;;;;;4998138;28;38679;-74
2022/12/05 12:25:16;;;;;;;9.33;8.17;;;6.70;99.90;;;;;;5000456;28;37910;-76
2022/12/05 12:27:51;;;;;;;9.93;7.63;;;6.70;99.90;;;;;;4975998;28;47632;-74
2022/12/05 12:30:35;;;;;;;11.20;8.30;;;6.70;99.90;;;;;;4997608;28;36188;-75
2022/12/05 12:33:13;;;;;;;10.87;8.33;;;6.70;99.90;;;;;;4997603;28;38930;-75
2022/12/05 12:35:52;;;;;;;11.67;8.30;;;6.60;99.90;;;;;;4987154;28;47563;-76
2022/12/05 12:38:59;;;;;;;12.23;9.07;;;6.60;99.90;;;;;;4996043;28;38225;-75
2022/12/05 12:41:47;;;;;;;10.87;8.60;;;6.60;99.90;;;;;;5003808;28;38173;-76
2022/12/05 12:45:01;;;;;;;11.77;8.30;;;6.60;99.90;;;;;;5005691;28;38329;-76
2022/12/05 12:47:57;;;;;;;9.83;7.83;;;6.60;99.90;;;;;;4959722;28;40211;-76
2022/12/05 12:50:35;;;;;;;11.90;8.20;;;6.60;99.90;;;;;;4998726;28;37291;-76
2022/12/05 12:53:29;;;;;;;12.70;8.80;;;6.60;99.90;;;;;;5000568;28;35692;-76
2022/12/05 12:56:17;;;;;;;12.73;8.93;;;6.60;99.90;;;;;;5012273;28;47208;-77
2022/12/05 12:58:52;;;;;;;12.17;8.53;;;6.60;99.90;;;;;;5010757;28;47422;-78
2022/12/05 13:01:40;;;;;;;11.20;8.40;;;6.60;99.90;;;;;;5009631;28;37156;-76
2022/12/05 13:04:39;;;;;;;12.17;7.97;;;6.60;99.90;;;;;;5012024;28;35808;-77
2022/12/05 13:07:26;;;;;;;11.23;8.27;;;6.60;99.90;;;;;;5002406;28;38914;-77
2022/12/05 13:10:21;;;;;;;12.57;8.13;;;6.70;99.90;;;;;;4997483;28;38157;-77
2022/12/05 13:12:48;;;;;;;10.00;7.37;;;6.70;99.90;;;;;;4984272;28;47076;-77
2022/12/05 13:15:18;;;;;;;12.60;7.17;;;6.70;99.90;;;;;;5000125;28;37028;-76
2022/12/05 13:17:47;;;;;;;10.40;7.47;;;6.70;99.90;;;;;;5011781;28;39134;-76
2022/12/05 13:20:17;;;;;;;11.00;7.50;;;6.70;99.90;;;;;;4990482;28;38643;-76
2022/12/05 13:22:44;;;;;;;12.00;7.40;;;6.70;99.90;;;;;;4992586;28;39034;-77
2022/12/05 13:25:15;;;;;;;10.10;6.97;;;6.70;99.90;;;;;;4996175;28;35877;-77
2022/12/05 13:27:54;;;;;;;12.13;7.57;;;6.70;99.90;;;;;;4996581;28;37479;-76